Time;durP1;ratioP1;P1;durP2;ratioP2;P2;SDS_P1;SDS_P2;PMS_P1;PMS_P2;Temp;Humidity;BMP_temperature;BMP_pressure;BME280_temperature;BME280_humidity;BME280_pressure;Samples;Min_cycle;Max_cycle;Signal;HPM_P1;HPM_P2
2023/01/02 00:00:26;;;;;;;13.18;4.80;;;;;;;11.73;100.00;100920.75;4994221;28;20084;-67
2023/01/02 00:02:52;;;;;;;8.77;4.50;;;;;;;11.77;100.00;100909.28;4994631;28;20023;-67
2023/01/02 00:05:17;;;;;;;13.68;4.57;;;;;;;11.77;100.00;100911.91;4994262;28;20034;-67
2023/01/02 00:07:42;;;;;;;11.05;4.55;;;;;;;11.78;100.00;100908.41;4994167;28;20030;-67
2023/01/02 00:10:08;;;;;;;13.02;4.28;;;;;;;11.78;100.00;100926.06;4994398;28;20042;-67
2023/01/02 00:12:34;;;;;;;12.98;4.75;;;;;;;11.82;100.00;100919.94;4994193;28;20026;-66
2023/01/02 00:14:59;;;;;;;12.38;4.88;;;;;;;11.80;100.00;100924.31;4993967;28;20057;-67
2023/01/02 00:17:24;;;;;;;11.77;4.93;;;;;;;11.82;100.00;100919.00;4976760;28;20030;-66
2023/01/02 00:19:50;;;;;;;15.13;4.75;;;;;;;11.81;100.00;100910.19;4994953;28;20117;-67
2023/01/02 00:22:15;;;;;;;15.40;5.20;;;;;;;11.79;100.00;100922.53;4995988;28;20034;-67
2023/01/02 00:24:41;;;;;;;12.38;5.22;;;;;;;11.77;100.00;100901.34;4994630;28;20031;-67
2023/01/02 00:27:06;;;;;;;12.32;5.20;;;;;;;11.77;100.00;100911.91;4994259;28;20035;-67
2023/01/02 00:29:31;;;;;;;14.75;6.07;;;;;;;11.78;100.00;100913.72;4993947;28;20027;-66
2023/01/02 00:31:58;;;;;;;11.38;5.07;;;;;;;11.77;100.00;100903.97;4993870;28;20058;-67
2023/01/02 00:34:24;;;;;;;17.73;5.28;;;;;;;11.76;100.00;100899.56;4994029;28;20030;-66
2023/01/02 00:36:49;;;;;;;13.30;5.18;;;;;;;11.74;100.00;100906.63;4993722;28;20038;-67
2023/01/02 00:39:15;;;;;;;13.27;5.13;;;;;;;11.73;100.00;100902.22;4993694;28;20026;-66
2023/01/02 00:41:40;;;;;;;10.85;4.97;;;;;;;11.72;100.00;100891.59;4993880;28;20031;-66
2023/01/02 00:44:07;;;;;;;10.57;5.03;;;;;;;11.72;100.00;100895.13;4993951;28;20034;-66
2023/01/02 00:46:32;;;;;;;11.80;4.82;;;;;;;11.76;100.00;100883.69;4993778;28;20031;-67
2023/01/02 00:48:57;;;;;;;12.60;5.22;;;;;;;11.81;100.00;100889.00;4993748;28;20029;-67
2023/01/02 00:51:23;;;;;;;13.70;5.05;;;;;;;11.83;100.00;100889.06;4993812;28;20125;-67
2023/01/02 00:53:48;;;;;;;14.75;4.68;;;;;;;11.85;100.00;100890.84;4993837;28;20113;-67
2023/01/02 00:56:14;;;;;;;12.45;4.95;;;;;;;11.86;100.00;100883.78;4993414;28;20062;-66
2023/01/02 00:58:39;;;;;;;10.15;4.78;;;;;;;11.87;100.00;100881.16;4993795;28;20031;-66
2023/01/02 01:01:05;;;;;;;11.57;4.82;;;;;;;11.88;100.00;100868.78;4993598;28;20026;-67
2023/01/02 01:03:30;;;;;;;17.13;5.25;;;;;;;11.91;100.00;100868.81;4993486;28;20080;-66
2023/01/02 01:05:56;;;;;;;14.50;5.15;;;;;;;11.93;100.00;100869.69;4993539;28;20026;-66
2023/01/02 01:08:21;;;;;;;11.55;4.22;;;;;;;11.95;100.00;100870.63;4993472;28;20372;-67
2023/01/02 01:10:47;;;;;;;13.18;4.88;;;;;;;12.01;100.00;100882.09;4993440;28;20037;-66
2023/01/02 01:13:12;;;;;;;10.25;4.43;;;;;;;12.05;100.00;100864.47;4993473;28;20395;-67
2023/01/02 01:15:38;;;;;;;10.95;4.47;;;;;;;12.08;100.00;100853.91;4993359;28;20084;-67
2023/01/02 01:18:03;;;;;;;11.35;4.38;;;;;;;12.13;99.66;100861.88;4993434;28;20023;-66
2023/01/02 01:20:29;;;;;;;10.90;4.25;;;;;;;12.15;99.99;100862.75;4993308;28;20034;-66
2023/01/02 01:22:55;;;;;;;15.82;4.35;;;;;;;12.14;100.00;100861.88;4993330;28;20030;-67
2023/01/02 01:25:20;;;;;;;16.00;4.60;;;;;;;12.20;100.00;100859.22;4993111;28;20033;-68
2023/01/02 01:27:46;;;;;;;12.95;4.40;;;;;;;12.21;100.00;100873.38;4993195;28;20018;-67
2023/01/02 01:30:11;;;;;;;10.32;4.30;;;;;;;12.26;100.00;100871.63;4993316;28;20027;-67
2023/01/02 01:32:37;;;;;;;11.13;4.28;;;;;;;12.25;100.00;100865.47;5012680;23;20058;-65
2023/01/02 01:35:03;;;;;;;10.70;4.20;;;;;;;12.24;100.00;100863.66;4973931;28;20085;-65
2023/01/02 01:37:28;;;;;;;13.85;4.68;;;;;;;12.28;100.00;100867.22;4973746;28;20035;-65
2023/01/02 01:39:53;;;;;;;17.55;4.65;;;;;;;12.28;100.00;100870.75;4973684;28;20127;-65
2023/01/02 01:42:19;;;;;;;13.55;4.78;;;;;;;12.29;100.00;100876.97;4973961;28;20111;-64
2023/01/02 01:44:50;;;;;;;10.38;4.47;;;;;;;12.26;100.00;100869.88;4985299;28;20041;-64
2023/01/02 01:47:24;;;;;;;10.38;4.00;;;;;;;12.26;100.00;100866.34;4993239;28;20027;-65
2023/01/02 01:49:55;;;;;;;7.93;4.00;;;;;;;12.24;100.00;100876.91;4975583;28;20022;-64
2023/01/02 01:52:27;;;;;;;11.70;4.43;;;;;;;12.22;100.00;100870.72;4993394;28;20022;-64
2023/01/02 01:55:05;;;;;;;10.68;4.35;;;;;;;12.21;100.00;100887.50;4992917;28;20090;-64
2023/01/02 01:57:38;;;;;;;16.20;4.70;;;;;;;12.18;100.00;100882.19;4993332;28;20102;-65
2023/01/02 02:00:04;;;;;;;13.10;4.45;;;;;;;12.18;100.00;100884.84;4996665;28;20037;-66
2023/01/02 02:02:31;;;;;;;11.50;4.80;;;;;;;12.17;100.00;100890.16;4996330;28;20386;-65
2023/01/02 02:05:01;;;;;;;16.50;5.05;;;;;;;12.17;100.00;100888.38;4996687;28;20041;-66
2023/01/02 02:07:27;;;;;;;12.68;4.50;;;;;;;12.17;100.00;100891.03;4996406;28;20109;-66
2023/01/02 02:09:59;;;;;;;11.48;4.47;;;;;;;12.19;100.00;100888.38;4996488;28;20113;-66
2023/01/02 02:12:25;;;;;;;12.85;4.10;;;;;;;12.15;100.00;100889.22;4996623;28;20134;-65
2023/01/02 02:14:51;;;;;;;11.40;4.10;;;;;;;12.18;100.00;100891.91;4996503;28;20125;-65
2023/01/02 02:17:36;;;;;;;14.10;5.20;;;;;;;12.18;100.00;100897.22;4996208;28;20106;-66
2023/01/02 02:20:22;;;;;;;11.23;3.95;;;;;;;12.18;100.00;100891.91;4996435;28;20030;-65
2023/01/02 02:23:06;;;;;;;12.30;4.35;;;;;;;12.17;100.00;100880.44;4996224;28;20030;-66
2023/01/02 02:25:44;;;;;;;10.60;4.20;;;;;;;12.18;100.00;100886.59;4995795;28;20038;-64
2023/01/02 02:28:12;;;;;;;11.52;4.07;;;;;;;12.21;100.00;100887.50;4996058;28;20495;-64
2023/01/02 02:30:46;;;;;;;10.20;3.92;;;;;;;12.20;100.00;100893.66;4995930;28;20491;-64
2023/01/02 02:33:24;;;;;;;17.63;4.38;;;;;;;12.21;100.00;100894.59;4978345;28;20049;-65
2023/01/02 02:35:58;;;;;;;13.00;4.18;;;;;;;12.20;100.00;100891.03;4995934;28;20045;-65
2023/01/02 02:38:26;;;;;;;13.68;4.90;;;;;;;12.21;100.00;100894.59;4995842;28;20470;-65
2023/01/02 02:41:16;;;;;;;10.65;3.90;;;;;;;12.22;100.00;100886.63;4995954;28;20022;-64
2023/01/02 02:44:14;;;;;;;15.52;4.22;;;;;;;12.25;100.00;100893.72;4995698;28;20058;-66
2023/01/02 02:47:19;;;;;;;12.32;4.13;;;;;;;12.32;100.00;100882.25;4995668;28;20030;-64
2023/01/02 02:49:59;;;;;;;11.63;4.00;;;;;;;12.28;100.00;100896.34;4995720;28;20027;-64
2023/01/02 02:52:37;;;;;;;14.60;4.35;;;;;;;12.32;100.00;100870.78;4995833;28;20037;-64
2023/01/02 02:55:29;;;;;;;11.18;3.85;;;;;;;12.32;100.00;100874.31;4995623;28;20073;-63
2023/01/02 02:57:57;;;;;;;12.20;3.85;;;;;;;12.31;100.00;100884.91;4994992;28;20061;-64
2023/01/02 03:00:23;;;;;;;11.68;4.40;;;;;;;12.31;100.00;100888.44;4995415;28;20026;-66
2023/01/02 03:02:48;;;;;;;11.48;4.20;;;;;;;12.31;100.00;100887.56;4995316;28;20102;-65
2023/01/02 03:05:32;;;;;;;9.18;3.70;;;;;;;12.33;100.00;100885.78;4995310;28;20094;-65
2023/01/02 03:08:15;;;;;;;10.60;4.00;;;;;;;12.30;100.00;100883.13;4995328;28;20037;-65
2023/01/02 03:10:58;;;;;;;13.95;4.15;;;;;;;12.31;100.00;100875.19;4994226;28;20026;-65
2023/01/02 03:13:38;;;;;;;14.88;4.07;;;;;;;12.29;100.00;100879.59;4995113;28;20101;-66
2023/01/02 03:16:16;;;;;;;12.38;4.55;;;;;;;12.25;100.00;100873.41;4995207;28;20038;-65
2023/01/02 03:18:53;;;;;;;13.45;4.07;;;;;;;12.24;100.00;100889.28;4995140;28;20030;-64
2023/01/02 03:21:34;;;;;;;14.82;4.50;;;;;;;12.24;100.00;100862.78;4995007;28;20054;-66
2023/01/02 03:24:05;;;;;;;11.90;4.00;;;;;;;12.22;100.00;100891.03;4995041;28;20026;-66
2023/01/02 03:26:33;;;;;;;10.00;4.35;;;;;;;12.22;100.00;100876.03;4995082;28;20041;-65
2023/01/02 03:29:06;;;;;;;11.48;3.83;;;;;;;12.20;100.00;100869.81;4994817;28;20026;-66
2023/01/02 03:31:36;;;;;;;14.18;4.13;;;;;;;12.20;100.00;100867.19;4994892;28;20026;-65
2023/01/02 03:34:16;;;;;;;8.93;3.75;;;;;;;12.20;100.00;100869.81;4980369;28;20504;-65
2023/01/02 03:36:43;;;;;;;9.68;3.90;;;;;;;12.20;100.00;100875.13;4975707;28;20102;-64
2023/01/02 03:39:14;;;;;;;11.98;4.15;;;;;;;12.22;100.00;100888.41;4975446;28;20058;-65
2023/01/02 03:42:10;;;;;;;12.55;4.65;;;;;;;12.23;100.00;100895.47;4975280;28;20468;-65
2023/01/02 03:44:42;;;;;;;8.82;3.75;;;;;;;12.22;100.00;100889.28;4958001;28;20082;-65
2023/01/02 03:47:29;;;;;;;12.10;3.72;;;;;;;12.24;100.00;100891.91;4975342;28;20026;-66
2023/01/02 03:50:00;;;;;;;11.88;4.53;;;;;;;12.25;100.00;100891.94;4975125;28;20117;-65
2023/01/02 03:52:25;;;;;;;14.57;4.18;;;;;;;12.23;100.00;100908.69;4975136;28;20094;-66
2023/01/02 03:54:52;;;;;;;9.77;4.00;;;;;;;12.22;100.00;100897.22;4974754;28;20118;-65
2023/01/02 03:57:32;;;;;;;14.32;4.35;;;;;;;12.21;100.00;100897.22;4974928;28;20512;-64
2023/01/02 04:00:11;;;;;;;12.85;3.83;;;;;;;12.21;100.00;100898.13;4974819;28;20399;-64
2023/01/02 04:02:55;;;;;;;7.72;3.60;;;;;;;12.24;100.00;100914.00;4974812;28;20460;-64
2023/01/02 04:05:57;;;;;;;8.75;3.30;;;;;;;12.20;100.00;100901.63;4974821;28;20031;-64
2023/01/02 04:08:28;;;;;;;;;;;;;;;12.23;100.00;100903.41;4975472;28;20034;-65
2023/01/02 04:10:57;;;;;;;7.70;3.75;;;;;;;12.21;100.00;100905.19;4974784;28;19916;-65
2023/01/02 04:13:53;;;;;;;14.80;3.78;;;;;;;12.19;100.00;100901.63;4974695;28;20037;-63
2023/01/02 04:16:23;;;;;;;10.77;3.88;;;;;;;12.19;100.00;100902.50;4972454;28;20042;-65
2023/01/02 04:19:18;;;;;;;8.45;3.88;;;;;;;12.18;100.00;100911.34;4974598;28;20067;-65
2023/01/02 04:21:46;;;;;;;11.50;3.67;;;;;;;12.15;100.00;100913.06;4974523;28;20078;-65
2023/01/02 04:24:16;;;;;;;11.57;4.10;;;;;;;12.12;100.00;100921.91;4974628;28;20030;-64
2023/01/02 04:26:45;;;;;;;10.77;3.75;;;;;;;12.11;100.00;100921.88;4973784;28;20172;-64
2023/01/02 04:29:10;;;;;;;11.07;4.10;;;;;;;12.13;100.00;100928.09;4974533;28;20051;-64
2023/01/02 04:31:49;;;;;;;9.05;4.18;;;;;;;12.11;100.00;100929.81;4974373;28;20129;-64
2023/01/02 04:34:16;;;;;;;11.88;4.00;;;;;;;12.12;100.00;100924.56;4990156;28;20053;-66
2023/01/02 04:36:42;;;;;;;11.35;4.10;;;;;;;12.13;100.00;100923.66;4994060;28;20057;-65
2023/01/02 04:39:08;;;;;;;12.70;4.38;;;;;;;12.10;100.00;100928.06;4993655;28;20053;-63
2023/01/02 04:41:36;;;;;;;8.98;3.90;;;;;;;12.08;100.00;100930.72;4993563;28;20034;-64
2023/01/02 04:44:01;;;;;;;11.35;4.15;;;;;;;12.11;100.00;100935.13;4993711;28;20034;-65
2023/01/02 04:46:28;;;;;;;10.18;4.20;;;;;;;12.10;100.00;100928.06;4993579;28;20033;-65
2023/01/02 04:48:54;;;;;;;9.85;3.85;;;;;;;12.08;100.00;100940.44;4993678;28;20022;-65
2023/01/02 04:51:20;;;;;;;14.20;4.20;;;;;;;12.08;100.00;100938.66;4976103;28;20018;-65
2023/01/02 04:53:48;;;;;;;13.48;4.30;;;;;;;12.08;100.00;100933.38;4993637;28;20031;-65
2023/01/02 04:56:13;;;;;;;9.70;3.70;;;;;;;12.09;100.00;100927.19;4993766;28;20029;-65
2023/01/02 04:58:40;;;;;;;10.95;4.18;;;;;;;12.09;100.00;100934.25;4993518;28;20038;-66
2023/01/02 05:01:09;;;;;;;9.27;3.83;;;;;;;12.10;100.00;100947.50;4993493;28;20043;-63
2023/01/02 05:03:39;;;;;;;13.52;3.92;;;;;;;12.09;100.00;100952.78;4993729;28;20148;-65
2023/01/02 05:06:04;;;;;;;12.20;4.10;;;;;;;12.10;100.00;100957.19;4993716;28;20088;-63
2023/01/02 05:08:30;;;;;;;7.20;3.85;;;;;;;12.11;100.00;100969.56;4993422;28;20048;-65
2023/01/02 05:10:55;;;;;;;9.00;3.63;;;;;;;12.10;100.00;100965.16;4993408;28;20038;-65
2023/01/02 05:13:20;;;;;;;12.95;4.10;;;;;;;12.13;100.00;100959.88;4993403;28;20059;-65
2023/01/02 05:15:53;;;;;;;11.07;4.22;;;;;;;12.13;100.00;100955.47;4993621;28;20030;-64
2023/01/02 05:18:18;;;;;;;8.18;3.67;;;;;;;12.14;100.00;100951.03;4993475;28;20034;-64
2023/01/02 05:20:44;;;;;;;12.02;3.85;;;;;;;12.15;100.00;100953.69;4993378;28;20065;-65
2023/01/02 05:25:54;;;;;;;9.88;4.10;;;;;;;12.18;100.00;100960.78;4993462;28;20130;-63
2023/01/02 05:28:19;;;;;;;11.35;3.92;;;;;;;12.26;100.00;100967.91;4993240;28;20062;-63
2023/01/02 05:30:44;;;;;;;10.15;3.42;;;;;;;12.22;100.00;100960.81;4993265;28;20399;-64
2023/01/02 05:33:10;;;;;;;9.57;3.60;;;;;;;12.21;100.00;100966.09;4994280;28;20117;-65
2023/01/02 05:35:35;;;;;;;9.07;3.60;;;;;;;12.24;100.00;100974.94;4997000;28;20065;-65
2023/01/02 05:38:01;;;;;;;9.90;3.72;;;;;;;12.22;100.00;100978.47;4996893;28;20027;-65
2023/01/02 05:40:26;;;;;;;8.82;3.22;;;;;;;12.24;100.00;100976.69;4996801;28;20027;-66
2023/01/02 05:42:52;;;;;;;7.28;3.35;;;;;;;12.22;100.00;100982.00;4996797;28;20038;-65
2023/01/02 05:45:18;;;;;;;6.45;3.17;;;;;;;12.23;100.00;100989.06;4996908;28;20022;-63
2023/01/02 05:47:43;;;;;;;7.78;3.30;;;;;;;12.22;100.00;100999.66;4997097;28;20030;-66
2023/01/02 05:50:09;;;;;;;8.10;3.25;;;;;;;12.22;100.00;100997.03;4996578;28;20038;-63
2023/01/02 05:52:34;;;;;;;9.43;3.55;;;;;;;12.23;100.00;101002.31;4996656;28;20026;-65
2023/01/02 05:54:59;;;;;;;7.05;3.10;;;;;;;12.25;100.00;101003.22;4996532;28;20042;-65
2023/01/02 05:57:25;;;;;;;12.23;3.25;;;;;;;12.24;100.00;101006.72;4996624;28;20113;-65
2023/01/02 05:59:50;;;;;;;11.45;3.35;;;;;;;12.24;100.00;101006.72;4996767;28;20037;-64
2023/01/02 06:02:15;;;;;;;9.73;3.42;;;;;;;12.24;100.00;101009.38;4996550;28;20476;-65
2023/01/02 06:04:41;;;;;;;8.20;3.20;;;;;;;12.23;100.00;101004.97;4996764;28;20037;-64
2023/01/02 06:07:06;;;;;;;5.85;2.97;;;;;;;12.22;100.00;100997.03;4996438;28;20077;-65
2023/01/02 06:09:31;;;;;;;10.25;3.20;;;;;;;12.22;100.00;101007.63;4996671;28;20029;-65
2023/01/02 06:11:57;;;;;;;6.18;3.08;;;;;;;12.21;100.00;101014.69;4996383;28;20522;-65
2023/01/02 06:14:23;;;;;;;11.23;3.45;;;;;;;12.19;100.00;101029.66;4996387;28;20065;-64
2023/01/02 06:16:49;;;;;;;8.75;3.08;;;;;;;12.18;100.00;101027.91;4996418;28;20027;-65
2023/01/02 06:19:14;;;;;;;8.23;3.25;;;;;;;12.13;100.00;101016.38;4996703;28;20033;-64
2023/01/02 06:21:40;;;;;;;9.40;3.10;;;;;;;12.10;100.00;101034.91;4996398;28;20030;-65
2023/01/02 06:24:05;;;;;;;8.70;3.40;;;;;;;12.06;100.00;101037.50;4996176;28;20496;-66
2023/01/02 06:26:31;;;;;;;8.13;3.22;;;;;;;12.02;100.00;101041.91;4996183;28;20105;-65
2023/01/02 06:28:57;;;;;;;7.28;3.00;;;;;;;11.99;100.00;101047.16;4995966;28;20396;-65
2023/01/02 06:31:25;;;;;;;9.75;3.25;;;;;;;11.94;100.00;101057.72;4996030;28;20061;-65
2023/01/02 06:33:58;;;;;;;6.22;2.90;;;;;;;11.93;100.00;101065.66;4995847;28;20042;-65
2023/01/02 06:36:25;;;;;;;4.70;3.00;;;;;;;11.89;100.00;101083.28;4996100;28;20042;-66
2023/01/02 06:38:51;;;;;;;6.30;2.95;;;;;;;11.79;100.00;101092.88;4996139;28;20417;-66
2023/01/02 06:41:17;;;;;;;3.65;2.35;;;;;;;11.70;100.00;101103.38;4995779;28;20476;-65
2023/01/02 06:43:45;;;;;;;6.10;2.00;;;;;;;11.63;100.00;101103.28;4995778;28;20046;-66
2023/01/02 06:46:12;;;;;;;2.63;1.83;;;;;;;11.56;100.00;101106.72;4995728;28;20037;-66
2023/01/02 06:48:38;;;;;;;1.60;1.50;;;;;;;11.44;99.67;101123.38;4995995;28;20038;-66
2023/01/02 06:51:07;;;;;;;2.40;1.60;;;;;;;11.37;99.39;101142.69;4995653;28;20034;-64
2023/01/02 06:53:35;;;;;;;0.88;0.88;;;;;;;11.27;98.01;101146.97;4995978;28;20161;-64
2023/01/02 06:56:01;;;;;;;1.30;1.20;;;;;;;11.21;97.00;101160.09;4978098;28;20034;-64
2023/01/02 06:58:30;;;;;;;1.20;1.08;;;;;;;11.17;98.46;101156.53;4995479;28;20023;-65
2023/01/02 07:01:10;;;;;;;2.13;1.10;;;;;;;11.16;98.93;101164.47;4995605;28;20037;-64
2023/01/02 07:03:35;;;;;;;1.10;1.00;;;;;;;11.12;98.22;101163.53;4995466;28;20195;-64
2023/01/02 07:06:03;;;;;;;2.50;1.00;;;;;;;11.06;98.15;101181.97;4995413;28;20105;-64
2023/01/02 07:08:29;;;;;;;1.17;1.10;;;;;;;11.03;98.55;101188.09;4995386;28;20030;-65
2023/01/02 07:10:54;;;;;;;1.20;1.10;;;;;;;10.98;98.58;101195.06;4995354;28;20080;-65
2023/01/02 07:13:20;;;;;;;2.17;1.30;;;;;;;10.94;99.01;101202.94;4995205;28;20026;-64
2023/01/02 07:15:45;;;;;;;1.20;1.10;;;;;;;10.86;98.91;101215.16;4995229;28;20038;-64
2023/01/02 07:18:10;;;;;;;1.98;1.23;;;;;;;10.79;98.67;101222.06;4995132;28;20030;-65
2023/01/02 07:20:36;;;;;;;1.52;1.42;;;;;;;10.74;98.87;101224.66;4995007;28;20110;-64
2023/01/02 07:23:01;;;;;;;2.13;1.70;;;;;;;10.72;99.35;101233.44;4995366;28;20030;-64
2023/01/02 07:25:26;;;;;;;2.05;1.50;;;;;;;10.72;99.50;101241.38;4994837;28;20097;-63
2023/01/02 07:27:52;;;;;;;1.52;1.40;;;;;;;10.72;100.00;101249.28;4995174;28;20031;-64
2023/01/02 07:30:17;;;;;;;1.95;1.70;;;;;;;10.68;99.77;101255.38;4994900;28;20035;-65
2023/01/02 07:32:42;;;;;;;3.42;2.00;;;;;;;10.63;99.76;101260.59;4994800;28;20030;-64
2023/01/02 07:35:09;;;;;;;3.22;2.45;;;;;;;10.56;99.53;101264.00;4994796;28;20042;-64
2023/01/02 07:37:34;;;;;;;2.97;2.30;;;;;;;10.55;100.00;101261.34;4995105;28;20037;-65
2023/01/02 07:39:59;;;;;;;2.83;2.20;;;;;;;10.55;100.00;101277.19;4994677;28;20031;-63
2023/01/02 07:42:25;;;;;;;3.30;2.50;;;;;;;10.50;100.00;101278.00;4994926;28;20050;-64
2023/01/02 07:44:50;;;;;;;4.18;2.40;;;;;;;10.48;100.00;101279.69;4994441;28;20476;-65
2023/01/02 07:47:16;;;;;;;3.13;2.33;;;;;;;10.47;100.00;101290.25;4994588;28;20058;-64
2023/01/02 07:49:41;;;;;;;4.28;2.70;;;;;;;10.41;100.00;101292.81;4994802;28;20027;-64
2023/01/02 07:52:10;;;;;;;3.38;2.70;;;;;;;10.38;100.00;101298.00;4994606;28;20062;-64
2023/01/02 07:54:36;;;;;;;3.30;2.60;;;;;;;10.34;100.00;101312.91;4994311;28;20027;-64
2023/01/02 07:57:02;;;;;;;3.90;2.72;;;;;;;10.31;100.00;101317.25;4993907;28;20027;-64
2023/01/02 07:59:27;;;;;;;4.05;3.10;;;;;;;10.28;100.00;101328.66;4994410;28;20033;-66
2023/01/02 08:01:53;;;;;;;4.30;3.42;;;;;;;10.28;100.00;101331.28;4994368;28;20438;-65
2023/01/02 08:04:18;;;;;;;4.28;3.58;;;;;;;10.27;100.00;101333.00;4994202;28;20178;-65
2023/01/02 08:06:43;;;;;;;4.97;3.83;;;;;;;10.25;100.00;101336.50;4994111;28;20038;-65
2023/01/02 08:09:09;;;;;;;5.32;3.88;;;;;;;10.25;100.00;101344.44;4994374;28;20034;-65
2023/01/02 08:11:34;;;;;;;6.68;3.92;;;;;;;10.27;100.00;101353.25;4994344;28;20113;-65
2023/01/02 08:14:00;;;;;;;6.97;4.30;;;;;;;10.24;100.00;101362.03;4993939;28;20472;-65
2023/01/02 08:16:25;;;;;;;6.97;4.20;;;;;;;10.27;100.00;101369.09;4994194;28;20034;-66
2023/01/02 08:18:55;;;;;;;5.50;4.22;;;;;;;10.26;100.00;101370.88;4994274;28;20467;-64
2023/01/02 08:21:22;;;;;;;6.70;5.13;;;;;;;10.22;100.00;101378.66;4994162;28;20028;-64
2023/01/02 08:23:47;;;;;;;6.50;5.25;;;;;;;10.21;100.00;101375.13;4993983;28;20113;-64
2023/01/02 08:26:13;;;;;;;7.05;5.20;;;;;;;10.21;100.00;101379.53;4993722;28;20180;-65
2023/01/02 08:28:39;;;;;;;6.88;5.43;;;;;;;10.21;100.00;101379.53;4994141;28;20026;-65
2023/01/02 08:31:20;;;;;;;6.75;5.57;;;;;;;10.22;100.00;101383.94;4993879;28;20050;-65
2023/01/02 08:33:45;;;;;;;7.63;5.88;;;;;;;10.19;100.00;101389.16;4993581;28;20058;-64
2023/01/02 08:36:13;;;;;;;7.72;5.55;;;;;;;10.16;100.00;101397.03;4993722;28;20033;-64
2023/01/02 08:38:38;;;;;;;6.68;5.47;;;;;;;10.13;100.00;101403.13;4993575;28;20472;-64
2023/01/02 08:41:04;;;;;;;6.32;5.22;;;;;;;10.13;100.00;101402.25;4993643;28;20029;-65
2023/01/02 08:43:35;;;;;;;9.52;5.13;;;;;;;10.08;100.00;101403.91;4993912;28;20038;-64
2023/01/02 08:46:08;;;;;;;7.20;5.07;;;;;;;10.06;100.00;101418.78;4993630;28;20523;-65
2023/01/02 08:48:34;;;;;;;7.50;5.30;;;;;;;10.01;100.00;101424.88;4993752;28;20041;-65
2023/01/02 08:51:01;;;;;;;6.75;4.97;;;;;;;9.98;100.00;101422.19;4993561;28;20487;-64
2023/01/02 08:53:26;;;;;;;5.85;4.95;;;;;;;9.98;100.00;101423.94;4993803;28;20041;-64
2023/01/02 08:55:51;;;;;;;5.75;4.70;;;;;;;9.97;100.00;101437.97;4993481;28;20344;-65
2023/01/02 08:58:17;;;;;;;7.70;5.25;;;;;;;9.96;100.00;101447.63;4993573;28;20023;-64
2023/01/02 09:00:42;;;;;;;5.97;4.57;;;;;;;9.97;100.00;101451.16;4993638;28;20026;-65
2023/01/02 09:03:07;;;;;;;7.00;5.03;;;;;;;9.92;99.84;101448.41;4993559;28;20541;-62
2023/01/02 09:05:33;;;;;;;6.78;4.78;;;;;;;9.91;99.89;101448.41;4976067;28;20030;-64
2023/01/02 09:08:00;;;;;;;5.72;4.65;;;;;;;9.90;99.79;101450.16;4994789;28;20475;-64
2023/01/02 09:10:26;;;;;;;5.15;4.05;;;;;;;9.91;100.00;101441.38;4997568;28;20045;-65
2023/01/02 09:12:51;;;;;;;6.68;4.53;;;;;;;9.91;99.70;101451.94;4997668;28;20454;-64
2023/01/02 09:15:17;;;;;;;7.53;4.45;;;;;;;9.91;98.95;101466.88;4997712;28;20054;-64
2023/01/02 09:17:42;;;;;;;6.43;4.60;;;;;;;9.91;99.34;101466.88;4997250;28;20022;-65
2023/01/02 09:20:08;;;;;;;6.97;4.65;;;;;;;9.90;99.26;101473.91;4996961;28;20030;-64
2023/01/02 09:22:33;;;;;;;5.60;4.45;;;;;;;9.93;99.34;101481.00;4996953;28;20493;-65
2023/01/02 09:24:59;;;;;;;6.88;4.65;;;;;;;9.92;98.81;101485.38;4996614;28;20087;-66
2023/01/02 09:27:25;;;;;;;7.60;4.80;;;;;;;9.91;98.74;101504.72;4996955;28;20539;-64
2023/01/02 09:29:52;;;;;;;7.82;4.32;;;;;;;9.92;98.22;101505.63;4979495;28;20019;-62
2023/01/02 09:32:17;;;;;;;7.15;4.57;;;;;;;9.90;98.26;101505.59;4997129;28;20041;-64
2023/01/02 09:34:49;;;;;;;8.00;4.00;;;;;;;9.89;98.41;101508.16;4996589;28;20395;-64
2023/01/02 09:37:15;;;;;;;6.38;4.18;;;;;;;9.92;98.96;101505.63;4996806;28;20484;-63
2023/01/02 09:39:40;;;;;;;6.75;4.30;;;;;;;9.93;98.40;101518.84;4996686;28;20432;-65
2023/01/02 09:42:07;;;;;;;6.80;4.28;;;;;;;9.97;98.31;101530.38;4996638;28;20058;-64
2023/01/02 09:44:40;;;;;;;7.90;3.90;;;;;;;9.97;97.92;101518.06;4996886;28;20031;-63
2023/01/02 09:47:16;;;;;;;5.30;3.72;;;;;;;9.96;97.52;101532.13;4996843;28;20026;-65
2023/01/02 09:50:15;;;;;;;6.20;3.92;;;;;;;10.00;97.89;101528.69;4996709;28;20459;-62
2023/01/02 09:52:45;;;;;;;6.88;3.55;;;;;;;10.01;97.58;101533.13;4987927;28;20399;-63
2023/01/02 09:55:41;;;;;;;6.45;3.65;;;;;;;10.06;97.48;101537.63;4979232;28;20053;-64
2023/01/02 09:58:42;;;;;;;7.38;4.15;;;;;;;10.10;97.99;101537.72;4996692;28;20369;-65
2023/01/02 10:01:30;;;;;;;6.03;3.90;;;;;;;10.14;97.78;101529.03;4996492;28;20464;-65
2023/01/02 10:04:04;;;;;;;6.15;3.90;;;;;;;10.18;97.28;101532.63;4996445;28;20053;-66
2023/01/02 10:06:48;;;;;;;5.88;3.53;;;;;;;10.18;97.03;101530.00;4996785;28;20033;-64
2023/01/02 10:09:24;;;;;;;4.97;3.50;;;;;;;10.14;96.69;101539.59;4996744;28;20026;-65
2023/01/02 10:12:06;;;;;;;9.32;3.80;;;;;;;10.16;97.29;101553.72;4996383;28;20022;-64
2023/01/02 10:14:31;;;;;;;6.10;3.60;;;;;;;10.14;96.28;101558.06;4996251;28;20164;-62
2023/01/02 10:16:59;;;;;;;5.10;3.50;;;;;;;10.13;96.74;101556.28;4996219;28;20058;-64
2023/01/02 10:19:41;;;;;;;6.18;3.60;;;;;;;10.11;96.58;101559.78;4995671;28;20058;-63
2023/01/02 10:22:14;;;;;;;7.28;3.67;;;;;;;10.11;96.64;101560.66;4996403;28;20022;-64
2023/01/02 10:24:53;;;;;;;7.22;3.92;;;;;;;10.13;96.29;101561.56;4996153;28;20109;-64
2023/01/02 10:27:25;;;;;;;7.55;3.80;;;;;;;10.13;95.64;101555.41;4996085;28;20030;-63
2023/01/02 10:30:05;;;;;;;6.95;3.50;;;;;;;10.14;95.28;101550.16;4996081;28;20038;-63
2023/01/02 10:32:32;;;;;;;6.43;3.95;;;;;;;10.16;95.70;101556.38;4996162;28;20050;-63
2023/01/02 10:35:06;;;;;;;6.47;3.58;;;;;;;10.19;95.37;101559.09;4995877;28;20496;-63
2023/01/02 10:37:33;;;;;;;6.20;3.70;;;;;;;10.22;94.63;101568.81;4995868;28;20018;-63
2023/01/02 10:39:58;;;;;;;7.63;3.63;;;;;;;10.20;93.99;101582.00;4978631;28;20045;-64
2023/01/02 10:42:24;;;;;;;5.55;3.47;;;;;;;10.15;93.78;101581.00;4996006;28;20030;-63
2023/01/02 10:44:50;;;;;;;7.93;3.90;;;;;;;10.16;94.34;101579.25;4995590;28;20393;-63
2023/01/02 10:47:19;;;;;;;6.82;3.70;;;;;;;10.17;94.18;101574.00;4995585;28;20026;-64
2023/01/02 10:49:45;;;;;;;7.40;4.00;;;;;;;10.18;93.77;101575.78;4995488;28;20027;-62
2023/01/02 10:52:38;;;;;;;7.40;3.72;;;;;;;10.20;94.41;101571.44;4995627;28;20034;-63
2023/01/02 10:55:04;;;;;;;5.85;4.28;;;;;;;10.15;93.84;101577.44;4976695;28;20038;-65
2023/01/02 10:58:00;;;;;;;11.80;4.25;;;;;;;10.15;94.14;101567.81;4995463;28;20025;-64
2023/01/02 11:00:28;;;;;;;6.43;4.63;;;;;;;10.14;94.27;101573.03;4977825;28;20112;-64
2023/01/02 11:02:56;;;;;;;8.82;4.65;;;;;;;10.11;94.82;101581.78;4995347;28;20424;-63
2023/01/02 11:05:25;;;;;;;7.38;4.88;;;;;;;10.12;94.96;101590.59;4995287;28;20023;-62
2023/01/02 11:07:52;;;;;;;8.05;5.70;;;;;;;10.09;94.74;101588.75;4995301;28;20033;-64
2023/01/02 11:10:31;;;;;;;9.43;5.78;;;;;;;10.14;95.28;101596.78;4995256;28;20034;-64
2023/01/02 11:13:09;;;;;;;9.27;5.88;;;;;;;10.16;95.74;101593.34;4995217;28;20030;-64
2023/01/02 11:15:45;;;;;;;10.23;5.90;;;;;;;10.18;95.11;101598.66;4995546;28;20034;-64
2023/01/02 11:18:19;;;;;;;7.63;5.97;;;;;;;10.20;95.73;101599.59;4995169;28;20053;-65
2023/01/02 11:20:51;;;;;;;8.10;5.88;;;;;;;10.22;96.04;101600.50;4994974;28;20027;-65
2023/01/02 11:23:19;;;;;;;8.27;5.87;;;;;;;10.23;95.68;101603.19;4961701;28;20117;-63
2023/01/02 11:25:46;;;;;;;8.57;6.05;;;;;;;10.24;95.97;101605.03;4994835;28;20029;-63
2023/01/02 11:28:18;;;;;;;9.75;6.60;;;;;;;10.25;95.12;101612.09;4994935;28;20038;-64
2023/01/02 11:30:46;;;;;;;10.32;6.95;;;;;;;10.26;95.01;101607.69;4994224;28;20030;-63